Time;durP1;ratioP1;P1;durP2;ratioP2;P2;SDS_P1;SDS_P2;PMS_P1;PMS_P2;Temp;Humidity;BMP_temperature;BMP_pressure;BME280_temperature;BME280_humidity;BME280_pressure;Samples;Min_cycle;Max_cycle;Signal;HPM_P1;HPM_P2
2021/12/26 00:01:40;;;;;;;5.45;1.63;;;-3.20;99.90;;;;;;5090975;28;20047;-74
2021/12/26 00:04:06;;;;;;;3.78;1.50;;;-3.20;99.90;;;;;;5092850;28;20549;-74
2021/12/26 00:06:32;;;;;;;7.07;2.25;;;-3.30;99.90;;;;;;5074615;28;20051;-74
2021/12/26 00:08:59;;;;;;;3.20;1.85;;;-3.30;99.90;;;;;;5074033;28;20056;-74
2021/12/26 00:11:25;;;;;;;5.93;1.88;;;-3.30;99.90;;;;;;5075013;28;20479;-74
2021/12/26 00:13:53;;;;;;;2.92;1.02;;;-3.20;99.90;;;;;;5092312;28;20403;-74
2021/12/26 00:16:19;;;;;;;3.55;0.93;;;-3.20;99.90;;;;;;5074270;28;20044;-74
2021/12/26 00:18:47;;;;;;;3.22;1.00;;;-3.20;99.90;;;;;;5074704;28;20083;-74
2021/12/26 00:21:20;;;;;;;3.92;1.33;;;-3.20;99.90;;;;;;5074224;28;20155;-74
2021/12/26 00:23:46;;;;;;;1.77;1.13;;;-3.20;99.90;;;;;;5074675;28;20094;-74
2021/12/26 00:26:13;;;;;;;3.05;1.50;;;-3.30;99.90;;;;;;5092153;28;20040;-74
2021/12/26 00:28:38;;;;;;;2.85;1.00;;;-3.30;99.90;;;;;;5092330;28;20044;-74
2021/12/26 00:31:06;;;;;;;3.95;1.25;;;-3.40;99.90;;;;;;5074140;28;20106;-74
2021/12/26 00:33:32;;;;;;;2.47;1.02;;;-3.40;99.90;;;;;;5092215;28;20722;-74
2021/12/26 00:35:59;;;;;;;3.20;1.35;;;-3.50;99.90;;;;;;5092351;28;20075;-74
2021/12/26 00:38:25;;;;;;;3.97;1.48;;;-3.50;99.90;;;;;;5057199;28;20066;-74
2021/12/26 00:40:51;;;;;;;3.92;1.27;;;-3.60;99.90;;;;;;5074561;28;20051;-74
2021/12/26 00:43:16;;;;;;;4.13;1.40;;;-3.60;99.90;;;;;;5091742;28;20044;-74
2021/12/26 00:45:43;;;;;;;4.40;1.30;;;-3.70;99.90;;;;;;5074045;28;20068;-74
2021/12/26 00:48:08;;;;;;;3.22;1.60;;;-3.70;99.90;;;;;;5092010;28;20047;-74
2021/12/26 00:50:37;;;;;;;5.78;1.50;;;-3.70;99.90;;;;;;5074058;28;20862;-74
2021/12/26 00:53:03;;;;;;;4.07;2.35;;;-3.80;99.90;;;;;;5073553;28;20467;-73
2021/12/26 00:55:28;;;;;;;7.43;1.85;;;-3.80;99.90;;;;;;5073944;28;20126;-74
2021/12/26 00:57:54;;;;;;;3.50;1.45;;;-3.80;99.90;;;;;;5074049;28;20071;-73
2021/12/26 01:00:25;;;;;;;4.90;1.58;;;-3.80;99.90;;;;;;5073480;28;20383;-73
2021/12/26 01:02:52;;;;;;;4.88;1.83;;;-3.90;99.90;;;;;;5057095;28;20041;-74
2021/12/26 01:05:19;;;;;;;4.68;1.75;;;-3.90;99.90;;;;;;5036967;28;20056;-73
2021/12/26 01:07:59;;;;;;;5.78;2.33;;;-3.90;99.90;;;;;;5053662;28;20044;-73
2021/12/26 01:10:38;;;;;;;6.00;2.60;;;-3.90;99.90;;;;;;5053217;28;20052;-73
2021/12/26 01:13:29;;;;;;;6.70;2.22;;;-3.90;99.90;;;;;;5070542;28;20523;-73
2021/12/26 01:15:57;;;;;;;5.82;2.35;;;-4.00;99.90;;;;;;5070764;28;20131;-74
2021/12/26 01:18:24;;;;;;;8.27;2.83;;;-4.00;99.90;;;;;;5071265;28;20187;-73
2021/12/26 01:20:56;;;;;;;5.32;1.98;;;-4.00;99.90;;;;;;5053387;28;20538;-73
2021/12/26 01:23:25;;;;;;;6.60;2.28;;;-4.00;99.90;;;;;;5071250;28;20487;-73
2021/12/26 01:25:51;;;;;;;6.85;2.00;;;-3.90;99.90;;;;;;5053162;28;20076;-73
2021/12/26 01:28:23;;;;;;;10.30;2.95;;;-4.00;99.90;;;;;;5070592;28;20051;-73
2021/12/26 01:30:50;;;;;;;7.00;2.40;;;-4.00;99.90;;;;;;5070988;28;20052;-73
2021/12/26 01:33:18;;;;;;;7.47;2.42;;;-4.00;99.90;;;;;;5070818;28;20511;-73
2021/12/26 01:35:44;;;;;;;6.25;2.10;;;-4.00;99.90;;;;;;5053398;28;20071;-73
2021/12/26 01:38:13;;;;;;;6.75;2.83;;;-4.00;99.90;;;;;;5053083;28;20418;-73
2021/12/26 01:40:52;;;;;;;6.28;2.58;;;-4.00;99.90;;;;;;5052619;28;20066;-74
2021/12/26 01:43:21;;;;;;;5.60;2.40;;;-4.00;99.90;;;;;;5052736;28;20131;-73
2021/12/26 01:45:50;;;;;;;6.68;2.60;;;-4.00;99.90;;;;;;5053075;28;20048;-74
2021/12/26 01:48:17;;;;;;;5.65;2.13;;;-4.00;99.90;;;;;;5052438;28;20070;-74
2021/12/26 01:50:44;;;;;;;3.88;1.45;;;-4.00;99.90;;;;;;5070610;28;20048;-74
2021/12/26 01:53:10;;;;;;;2.83;1.02;;;-3.90;99.90;;;;;;5070272;28;20077;-73
2021/12/26 01:55:46;;;;;;;3.80;1.15;;;-3.80;99.90;;;;;;5053036;28;20121;-74
2021/12/26 01:58:17;;;;;;;2.25;0.90;;;-3.70;99.90;;;;;;5036174;28;20074;-74
2021/12/26 02:00:46;;;;;;;1.80;1.00;;;-3.70;99.90;;;;;;5070029;28;20258;-74
2021/12/26 02:03:12;;;;;;;2.55;1.25;;;-3.60;99.90;;;;;;5071776;28;20044;-74
2021/12/26 02:05:37;;;;;;;4.80;0.95;;;-3.60;99.90;;;;;;5071577;28;20047;-73
2021/12/26 02:08:04;;;;;;;3.90;1.25;;;-3.50;99.90;;;;;;5071377;28;20395;-73
2021/12/26 02:10:29;;;;;;;2.33;0.88;;;-3.40;99.90;;;;;;5055143;28;20405;-74
2021/12/26 02:12:55;;;;;;;3.55;0.90;;;-3.40;99.90;;;;;;5071465;28;20047;-74
2021/12/26 02:15:21;;;;;;;4.45;0.82;;;-3.40;99.90;;;;;;5071742;28;20048;-74
2021/12/26 02:17:46;;;;;;;4.50;1.08;;;-3.30;99.90;;;;;;5070686;28;20058;-74
2021/12/26 02:20:16;;;;;;;3.92;1.30;;;-3.30;99.90;;;;;;5054335;28;20048;-74
2021/12/26 02:22:46;;;;;;;1.98;0.90;;;-3.30;99.90;;;;;;5089555;28;20045;-74
2021/12/26 02:25:27;;;;;;;3.35;1.35;;;-3.30;99.90;;;;;;5061237;28;20040;-74
2021/12/26 02:27:53;;;;;;;4.13;1.20;;;-3.30;99.90;;;;;;5059018;28;20411;-74
2021/12/26 02:30:19;;;;;;;5.05;2.05;;;-3.40;99.90;;;;;;5065368;28;20044;-73
2021/12/26 02:32:47;;;;;;;3.90;1.52;;;-3.30;99.90;;;;;;5089143;28;20048;-73
2021/12/26 02:35:13;;;;;;;3.95;1.40;;;-3.40;99.90;;;;;;5050871;28;20139;-74
2021/12/26 02:37:39;;;;;;;4.03;1.42;;;-3.40;99.90;;;;;;5069061;28;20674;-74
2021/12/26 02:40:06;;;;;;;2.55;1.30;;;-3.40;99.90;;;;;;5051033;28;20129;-74
2021/12/26 02:42:32;;;;;;;5.22;1.38;;;-3.50;99.90;;;;;;5061121;28;20055;-74
2021/12/26 02:44:57;;;;;;;4.75;1.50;;;-3.50;99.90;;;;;;5071888;28;20054;-74
2021/12/26 02:47:33;;;;;;;3.22;1.10;;;-3.50;99.90;;;;;;5071624;28;20466;-74
2021/12/26 02:50:05;;;;;;;4.72;1.30;;;-3.50;99.90;;;;;;5089319;28;20044;-74
2021/12/26 02:52:30;;;;;;;4.45;1.38;;;-3.50;99.90;;;;;;5089778;28;20040;-74
2021/12/26 02:54:59;;;;;;;2.63;1.17;;;-3.50;99.90;;;;;;5071496;28;20038;-74
2021/12/26 02:57:25;;;;;;;5.78;1.67;;;-3.50;99.90;;;;;;5071886;28;20138;-74
2021/12/26 02:59:51;;;;;;;2.85;1.20;;;-3.50;99.90;;;;;;5077324;28;20063;-74
2021/12/26 03:02:16;;;;;;;4.75;1.75;;;-3.50;99.90;;;;;;5069478;28;20490;-74
2021/12/26 03:04:42;;;;;;;4.57;1.45;;;-3.50;99.90;;;;;;5069526;28;20032;-73
2021/12/26 03:07:08;;;;;;;3.78;1.42;;;-3.50;99.90;;;;;;5051576;28;20059;-74
2021/12/26 03:09:43;;;;;;;5.60;1.67;;;-3.50;99.90;;;;;;5069323;28;20079;-74
2021/12/26 03:12:10;;;;;;;4.50;1.20;;;-3.50;99.90;;;;;;5069413;28;20053;-74
2021/12/26 03:14:37;;;;;;;4.53;2.10;;;-3.50;99.90;;;;;;5069762;28;20040;-74
2021/12/26 03:17:03;;;;;;;4.97;1.60;;;-3.50;99.20;;;;;;5068780;28;20056;-74
2021/12/26 03:19:34;;;;;;;5.20;1.70;;;-3.40;99.60;;;;;;5051484;28;20040;-73
2021/12/26 03:22:00;;;;;;;6.95;1.63;;;-3.50;99.10;;;;;;5051673;28;20442;-74
2021/12/26 03:24:25;;;;;;;4.72;1.30;;;-3.50;99.20;;;;;;5069122;28;20044;-74
2021/12/26 03:27:01;;;;;;;4.88;1.38;;;-3.50;98.20;;;;;;5069252;28;20080;-74
2021/12/26 03:29:27;;;;;;;7.45;1.92;;;-3.50;98.50;;;;;;5051394;28;20127;-74
2021/12/26 03:31:52;;;;;;;6.18;2.03;;;-3.50;98.40;;;;;;5051438;28;20131;-73
2021/12/26 03:34:18;;;;;;;4.43;1.50;;;-3.50;98.40;;;;;;5065228;28;20040;-74
2021/12/26 03:36:44;;;;;;;5.57;1.50;;;-3.50;98.00;;;;;;5075418;28;20135;-73
2021/12/26 03:39:09;;;;;;;5.45;1.70;;;-3.50;98.00;;;;;;5075479;28;20092;-74
2021/12/26 03:41:35;;;;;;;5.45;2.00;;;-3.50;98.00;;;;;;5075467;28;20048;-73
2021/12/26 03:44:01;;;;;;;7.07;2.03;;;-3.50;98.30;;;;;;5075295;28;20044;-74
2021/12/26 03:46:27;;;;;;;4.47;1.77;;;-3.50;98.10;;;;;;5075044;28;20121;-74
2021/12/26 03:48:53;;;;;;;3.60;1.25;;;-3.50;97.50;;;;;;5074969;28;20482;-73
2021/12/26 03:51:20;;;;;;;4.90;1.30;;;-3.50;97.60;;;;;;5093250;28;20032;-74
2021/12/26 03:53:46;;;;;;;5.68;1.70;;;-3.50;97.00;;;;;;5074791;28;20063;-73
2021/12/26 03:56:12;;;;;;;6.43;2.00;;;-3.50;96.90;;;;;;5074673;28;20063;-74
2021/12/26 03:58:39;;;;;;;7.85;1.80;;;-3.50;97.00;;;;;;5075006;28;20036;-74
2021/12/26 04:01:05;;;;;;;4.75;1.92;;;-3.50;97.10;;;;;;5075022;28;20131;-74
2021/12/26 04:03:30;;;;;;;4.70;1.80;;;-3.60;97.50;;;;;;5074782;28;20127;-74
2021/12/26 04:05:56;;;;;;;5.47;2.22;;;-3.60;96.90;;;;;;5074832;28;20173;-73
2021/12/26 04:08:22;;;;;;;6.78;2.33;;;-3.50;97.10;;;;;;5074106;28;20052;-74
2021/12/26 04:10:47;;;;;;;6.22;1.90;;;-3.60;96.80;;;;;;5074996;28;20055;-74
2021/12/26 04:13:13;;;;;;;6.72;2.08;;;-3.60;96.40;;;;;;5074565;28;20659;-73
2021/12/26 04:15:41;;;;;;;8.15;2.35;;;-3.50;96.30;;;;;;5074707;28;20043;-74
2021/12/26 04:18:07;;;;;;;4.25;1.58;;;-3.50;95.50;;;;;;5092789;28;20080;-74
2021/12/26 04:20:32;;;;;;;5.72;1.85;;;-3.50;95.60;;;;;;5074265;28;20083;-74
2021/12/26 04:22:58;;;;;;;5.47;1.73;;;-3.50;96.00;;;;;;5092357;28;20051;-74
2021/12/26 04:25:25;;;;;;;5.85;1.83;;;-3.50;96.10;;;;;;5092525;28;20039;-73
2021/12/26 04:27:51;;;;;;;5.07;1.75;;;-3.60;96.00;;;;;;5092603;28;20048;-73
2021/12/26 04:30:19;;;;;;;3.67;1.60;;;-3.60;95.90;;;;;;5092127;28;20551;-73
2021/12/26 04:32:44;;;;;;;6.65;1.85;;;-3.60;96.00;;;;;;5072461;28;20561;-74
2021/12/26 04:35:10;;;;;;;3.92;1.60;;;-3.60;94.90;;;;;;5054144;28;20123;-74
2021/12/26 04:37:36;;;;;;;5.72;1.77;;;-3.60;94.40;;;;;;5072271;28;20045;-74
2021/12/26 04:40:08;;;;;;;5.60;1.40;;;-3.60;94.80;;;;;;5071810;28;20048;-74
2021/12/26 04:42:35;;;;;;;3.30;1.27;;;-3.60;95.20;;;;;;5054136;28;20048;-74
2021/12/26 04:45:02;;;;;;;2.35;1.05;;;-3.50;95.20;;;;;;5072106;28;20080;-74
2021/12/26 04:47:28;;;;;;;5.68;1.33;;;-3.60;95.20;;;;;;5070930;28;20131;-74
2021/12/26 04:49:54;;;;;;;3.45;1.10;;;-3.60;95.50;;;;;;5054094;28;20139;-74
2021/12/26 04:52:19;;;;;;;2.75;1.42;;;-3.60;96.00;;;;;;5071976;28;20139;-74
2021/12/26 04:54:45;;;;;;;2.63;1.02;;;-3.60;95.90;;;;;;5053507;28;20163;-74
2021/12/26 04:57:10;;;;;;;4.13;1.50;;;-3.60;96.30;;;;;;5071796;28;20063;-74
2021/12/26 04:59:36;;;;;;;3.15;1.23;;;-3.70;96.20;;;;;;5071911;28;20131;-74
2021/12/26 05:02:02;;;;;;;5.05;1.40;;;-3.70;96.50;;;;;;5071699;28;20036;-74
2021/12/26 05:04:27;;;;;;;4.28;1.45;;;-3.70;96.50;;;;;;5053239;28;20116;-74
2021/12/26 05:06:53;;;;;;;3.38;1.20;;;-3.70;96.30;;;;;;5071299;28;20048;-74
2021/12/26 05:09:19;;;;;;;2.75;1.15;;;-3.60;96.40;;;;;;5053790;28;20415;-74
2021/12/26 05:11:44;;;;;;;4.13;1.63;;;-3.60;96.10;;;;;;5053435;28;20412;-74
2021/12/26 05:14:10;;;;;;;3.13;1.58;;;-3.60;96.10;;;;;;5053005;28;20102;-74
2021/12/26 05:16:35;;;;;;;5.07;1.65;;;-3.60;96.10;;;;;;5053811;28;20049;-74
2021/12/26 05:19:01;;;;;;;3.72;1.40;;;-3.60;96.60;;;;;;5053477;28;20051;-74
2021/12/26 05:21:27;;;;;;;4.15;1.23;;;-3.60;96.00;;;;;;5036626;28;20048;-74
2021/12/26 05:23:52;;;;;;;3.15;1.23;;;-3.60;96.20;;;;;;5053451;28;20093;-74
2021/12/26 05:26:18;;;;;;;4.57;1.95;;;-3.60;95.70;;;;;;5053277;28;20844;-74
2021/12/26 05:28:43;;;;;;;4.70;1.52;;;-3.60;96.00;;;;;;5071139;28;20066;-74
2021/12/26 05:31:09;;;;;;;5.78;1.40;;;-3.60;95.40;;;;;;5053220;28;20094;-74
2021/12/26 05:33:35;;;;;;;4.15;1.63;;;-3.60;95.20;;;;;;5044539;28;20554;-74
2021/12/26 05:36:00;;;;;;;6.07;1.80;;;-3.60;95.20;;;;;;5091272;28;20064;-74
2021/12/26 05:38:27;;;;;;;5.72;1.85;;;-3.60;95.50;;;;;;5073214;28;20418;-74
2021/12/26 05:40:54;;;;;;;3.85;1.88;;;-3.60;94.50;;;;;;5072588;28;20039;-74
2021/12/26 05:43:20;;;;;;;6.03;2.30;;;-3.60;95.30;;;;;;5073078;28;20499;-74
2021/12/26 05:45:46;;;;;;;6.72;2.10;;;-3.60;94.60;;;;;;5072765;28;20093;-74
2021/12/26 05:48:11;;;;;;;5.50;2.42;;;-3.60;94.70;;;;;;5090978;28;20071;-74
2021/12/26 05:50:37;;;;;;;5.85;2.25;;;-3.60;94.00;;;;;;5072796;28;20048;-74
2021/12/26 05:53:02;;;;;;;9.82;2.60;;;-3.60;93.60;;;;;;5072845;28;20446;-74
2021/12/26 05:55:28;;;;;;;6.28;2.22;;;-3.60;94.10;;;;;;5072731;28;20428;-74
2021/12/26 05:57:54;;;;;;;9.77;2.72;;;-3.60;94.40;;;;;;5072056;28;20387;-74
2021/12/26 06:00:20;;;;;;;5.10;1.85;;;-3.60;93.90;;;;;;5072423;28;20156;-74
2021/12/26 06:02:49;;;;;;;7.75;2.40;;;-3.60;93.90;;;;;;5090766;28;20043;-74
2021/12/26 06:05:14;;;;;;;7.07;2.50;;;-3.60;94.20;;;;;;5072467;28;20043;-74
2021/12/26 06:07:40;;;;;;;7.07;2.50;;;-3.70;94.40;;;;;;5071970;28;20063;-74
2021/12/26 06:10:07;;;;;;;6.35;2.30;;;-3.70;94.00;;;;;;5072297;28;20064;-74
2021/12/26 06:12:33;;;;;;;5.45;2.25;;;-3.70;94.40;;;;;;5072556;28;20060;-74
2021/12/26 06:14:58;;;;;;;7.78;2.42;;;-3.70;93.90;;;;;;5071973;28;20040;-74
2021/12/26 06:17:24;;;;;;;5.78;2.13;;;-3.70;94.10;;;;;;5072403;28;20060;-74
2021/12/26 06:19:50;;;;;;;5.50;2.28;;;-3.70;94.40;;;;;;5090001;28;20062;-74
2021/12/26 06:22:16;;;;;;;5.32;2.22;;;-3.70;93.50;;;;;;5071385;28;20105;-74
2021/12/26 06:24:42;;;;;;;10.65;3.00;;;-3.70;93.50;;;;;;5071013;28;20052;-74
2021/12/26 06:27:07;;;;;;;8.05;2.55;;;-3.70;93.20;;;;;;5071284;28;20043;-74
2021/12/26 06:29:33;;;;;;;5.13;2.25;;;-3.70;92.80;;;;;;5071017;28;20039;-74
2021/12/26 06:31:58;;;;;;;8.68;2.88;;;-3.70;92.90;;;;;;5070927;28;20040;-74
2021/12/26 06:34:24;;;;;;;6.93;2.70;;;-3.60;91.30;;;;;;5055732;28;20445;-74
2021/12/26 06:36:50;;;;;;;5.35;2.55;;;-3.60;91.70;;;;;;5051242;28;20048;-74
2021/12/26 06:39:15;;;;;;;5.90;2.83;;;-3.60;90.20;;;;;;5051222;28;20520;-74
2021/12/26 06:41:41;;;;;;;8.43;2.78;;;-3.60;91.00;;;;;;5051014;28;20105;-73
2021/12/26 06:44:07;;;;;;;6.70;2.58;;;-3.60;91.40;;;;;;5069320;28;20040;-73
2021/12/26 06:46:35;;;;;;;8.18;3.05;;;-3.60;90.50;;;;;;5051517;28;20049;-74
2021/12/26 06:49:03;;;;;;;6.45;2.45;;;-3.60;90.00;;;;;;5051554;28;20055;-74
2021/12/26 06:51:29;;;;;;;7.03;2.97;;;-3.60;91.00;;;;;;5051165;28;20045;-73
2021/12/26 06:53:55;;;;;;;6.35;2.75;;;-3.60;90.90;;;;;;5051539;28;20072;-74
2021/12/26 06:56:20;;;;;;;8.70;2.65;;;-3.60;91.00;;;;;;5034810;28;20074;-74
2021/12/26 06:58:46;;;;;;;6.00;2.65;;;-3.70;90.80;;;;;;5051360;28;20139;-74
2021/12/26 07:01:12;;;;;;;6.80;2.72;;;-3.60;90.10;;;;;;5051540;28;20089;-73
2021/12/26 07:03:38;;;;;;;6.55;2.33;;;-3.60;89.60;;;;;;5051808;28;20041;-73
2021/12/26 07:06:03;;;;;;;5.75;2.67;;;-3.70;90.60;;;;;;5050575;28;20093;-74
2021/12/26 07:08:29;;;;;;;9.02;2.78;;;-3.70;91.10;;;;;;5051273;28;20052;-74
2021/12/26 07:10:55;;;;;;;5.32;2.20;;;-3.70;91.80;;;;;;5050758;28;20463;-74
2021/12/26 07:13:20;;;;;;;5.55;2.55;;;-3.80;92.10;;;;;;5051428;28;20051;-74
2021/12/26 07:15:46;;;;;;;6.50;2.60;;;-3.80;91.60;;;;;;5068470;28;20499;-74
2021/12/26 07:18:12;;;;;;;5.85;2.67;;;-3.80;92.30;;;;;;5051247;28;20147;-74
2021/12/26 07:20:37;;;;;;;5.35;2.60;;;-3.90;92.00;;;;;;5068963;28;20511;-74
2021/12/26 07:23:04;;;;;;;6.65;2.92;;;-3.90;92.00;;;;;;5068189;28;20082;-74
2021/12/26 07:25:30;;;;;;;5.28;2.33;;;-3.90;92.70;;;;;;5051413;28;20067;-73
2021/12/26 07:27:56;;;;;;;6.00;3.33;;;-3.90;92.80;;;;;;5050783;28;20044;-73
2021/12/26 07:30:22;;;;;;;6.55;3.08;;;-3.90;92.80;;;;;;5051522;28;20316;-74
2021/12/26 07:32:47;;;;;;;6.32;3.08;;;-3.90;93.00;;;;;;5053024;28;20131;-73
2021/12/26 07:35:13;;;;;;;4.97;2.65;;;-3.90;92.70;;;;;;5089428;28;20348;-73
2021/12/26 07:37:39;;;;;;;9.07;3.13;;;-4.00;92.60;;;;;;5071561;28;20064;-73
2021/12/26 07:40:06;;;;;;;5.78;2.50;;;-4.00;93.00;;;;;;5054661;28;20059;-73
2021/12/26 07:42:32;;;;;;;5.47;2.72;;;-4.00;92.60;;;;;;5071178;28;20089;-73
2021/12/26 07:44:57;;;;;;;8.80;3.00;;;-4.00;92.50;;;;;;5070715;28;20044;-74
2021/12/26 07:47:23;;;;;;;9.68;3.08;;;-4.00;92.40;;;;;;5071002;28;20104;-73
2021/12/26 07:49:49;;;;;;;8.73;3.35;;;-4.00;92.20;;;;;;5054148;28;20080;-73
2021/12/26 07:52:18;;;;;;;7.68;2.55;;;-3.90;92.00;;;;;;5054551;28;20473;-73
2021/12/26 07:54:45;;;;;;;7.07;3.00;;;-3.90;92.30;;;;;;5071084;28;20887;-74
2021/12/26 07:57:11;;;;;;;6.22;2.33;;;-3.90;92.50;;;;;;5089379;28;20051;-74
2021/12/26 07:59:37;;;;;;;6.63;2.45;;;-3.90;92.30;;;;;;5054602;28;20490;-74
2021/12/26 08:02:03;;;;;;;8.52;2.83;;;-3.90;92.40;;;;;;5089206;28;20040;-73
2021/12/26 08:04:29;;;;;;;5.75;2.22;;;-3.90;92.10;;;;;;5089409;28;20036;-73
2021/12/26 08:06:57;;;;;;;4.82;2.22;;;-3.90;92.60;;;;;;5071035;28;20151;-73
2021/12/26 08:09:22;;;;;;;7.20;2.40;;;-4.00;92.80;;;;;;5071116;28;20127;-73
2021/12/26 08:11:48;;;;;;;7.03;2.97;;;-4.00;92.40;;;;;;5089434;28;20127;-73
2021/12/26 08:14:14;;;;;;;5.28;2.25;;;-4.00;93.20;;;;;;5070609;28;20051;-74
2021/12/26 08:16:39;;;;;;;6.53;2.35;;;-4.00;93.40;;;;;;5089183;28;20083;-73
2021/12/26 08:19:07;;;;;;;7.22;3.22;;;-4.00;93.30;;;;;;5070707;28;20040;-73
2021/12/26 08:21:34;;;;;;;5.40;2.40;;;-4.00;93.50;;;;;;5070913;28;20082;-74
2021/12/26 08:24:00;;;;;;;7.10;2.85;;;-4.00;93.30;;;;;;5092875;28;20055;-73
2021/12/26 08:26:25;;;;;;;7.80;2.33;;;-4.00;93.30;;;;;;5057393;28;20516;-73
2021/12/26 08:28:51;;;;;;;5.78;2.35;;;-4.00;93.60;;;;;;5092529;28;20040;-73
2021/12/26 08:31:18;;;;;;;5.95;2.50;;;-4.00;93.00;;;;;;5074332;28;20094;-73
2021/12/26 08:33:44;;;;;;;4.57;2.08;;;-3.90;93.70;;;;;;5064449;28;20155;-73
2021/12/26 08:36:10;;;;;;;6.32;2.70;;;-3.90;93.90;;;;;;5057321;28;20123;-73
2021/12/26 08:38:37;;;;;;;5.80;2.63;;;-4.00;94.10;;;;;;5081536;28;20036;-73
2021/12/26 08:41:03;;;;;;;7.95;3.25;;;-3.90;93.80;;;;;;5073189;28;20383;-73
2021/12/26 08:43:29;;;;;;;6.78;2.60;;;-3.90;94.10;;;;;;5069885;28;20044;-73
2021/12/26 08:45:55;;;;;;;8.02;3.60;;;-3.90;93.90;;;;;;5072285;28;20059;-74
2021/12/26 08:48:21;;;;;;;6.55;2.92;;;-3.90;93.60;;;;;;5089923;28;20040;-74
2021/12/26 08:50:47;;;;;;;7.50;2.65;;;-3.80;93.40;;;;;;5085960;28;20540;-74
2021/12/26 08:53:13;;;;;;;6.50;2.58;;;-3.80;94.00;;;;;;5089791;28;20039;-73
2021/12/26 08:55:39;;;;;;;4.72;2.10;;;-3.80;93.90;;;;;;5085291;28;20032;-74
2021/12/26 08:58:07;;;;;;;6.93;2.80;;;-3.80;93.20;;;;;;5086030;28;20043;-74
2021/12/26 09:00:35;;;;;;;7.38;2.97;;;-3.70;92.90;;;;;;5089496;28;20039;-74
2021/12/26 09:03:00;;;;;;;6.22;3.08;;;-3.70;93.10;;;;;;5071024;28;20115;-75
2021/12/26 09:05:26;;;;;;;6.53;2.45;;;-3.70;92.80;;;;;;5071603;28;20127;-74
2021/12/26 09:07:52;;;;;;;5.72;2.70;;;-3.70;92.20;;;;;;5071365;28;20051;-74
2021/12/26 09:10:18;;;;;;;6.97;3.15;;;-3.60;93.00;;;;;;5089617;28;20051;-74
2021/12/26 09:12:44;;;;;;;6.57;2.95;;;-3.60;92.90;;;;;;5089513;28;20047;-74
2021/12/26 09:15:12;;;;;;;7.13;2.97;;;-3.60;92.40;;;;;;5088781;28;20066;-74
2021/12/26 09:17:39;;;;;;;7.97;2.78;;;-3.60;91.70;;;;;;5089051;28;20036;-74
2021/12/26 09:20:07;;;;;;;5.47;2.95;;;-3.60;91.70;;;;;;5089600;28;20079;-74
2021/12/26 09:22:33;;;;;;;9.32;3.20;;;-3.50;91.80;;;;;;5089163;28;20122;-74
2021/12/26 09:24:59;;;;;;;6.80;3.60;;;-3.50;90.80;;;;;;5070807;28;20185;-74
2021/12/26 09:27:24;;;;;;;5.38;2.75;;;-3.50;91.70;;;;;;5084895;28;20059;-74
2021/12/26 09:29:50;;;;;;;4.63;2.50;;;-3.50;91.90;;;;;;5071244;28;20040;-74
2021/12/26 09:32:16;;;;;;;6.65;3.25;;;-3.40;92.20;;;;;;5069242;28;20142;-74
2021/12/26 09:34:41;;;;;;;8.50;3.10;;;-3.40;92.10;;;;;;5070460;28;20052;-74
2021/12/26 09:37:09;;;;;;;7.45;3.08;;;-3.40;92.40;;;;;;5089954;28;20040;-74
2021/12/26 09:39:36;;;;;;;6.93;3.20;;;-3.40;92.00;;;;;;5078690;28;20414;-74
2021/12/26 09:42:02;;;;;;;7.50;3.25;;;-3.40;91.70;;;;;;5051978;28;20213;-71
2021/12/26 09:44:28;;;;;;;7.72;2.90;;;-3.30;92.00;;;;;;5088446;28;20076;-73
2021/12/26 09:46:54;;;;;;;8.10;4.10;;;-3.30;91.50;;;;;;5064780;28;20048;-73
2021/12/26 09:49:21;;;;;;;8.25;2.85;;;-3.30;90.70;;;;;;5048966;28;20410;-73
2021/12/26 09:51:49;;;;;;;7.10;2.97;;;-3.20;91.70;;;;;;5069672;28;20052;-73
2021/12/26 09:54:16;;;;;;;5.90;2.38;;;-3.20;91.00;;;;;;5073276;28;20399;-73
2021/12/26 09:56:42;;;;;;;7.18;3.13;;;-3.20;90.80;;;;;;5071979;28;20071;-73
2021/12/26 09:59:18;;;;;;;8.65;3.15;;;-3.20;91.00;;;;;;5090050;28;20032;-73
2021/12/26 10:01:47;;;;;;;7.63;3.42;;;-3.10;91.20;;;;;;5077098;28;20123;-73
2021/12/26 10:04:15;;;;;;;8.43;3.33;;;-3.10;91.90;;;;;;5061873;28;20059;-73
2021/12/26 10:06:41;;;;;;;7.22;3.40;;;-3.10;92.10;;;;;;5051569;28;20056;-73
2021/12/26 10:09:09;;;;;;;6.95;3.63;;;-3.10;92.20;;;;;;5070195;28;20059;-74
2021/12/26 10:11:41;;;;;;;6.13;3.10;;;-3.00;92.30;;;;;;5052651;28;20051;-73
2021/12/26 10:14:18;;;;;;;4.25;2.70;;;-3.00;93.20;;;;;;5089791;28;20057;-73
2021/12/26 10:16:51;;;;;;;5.05;2.33;;;-3.00;93.20;;;;;;5072256;28;20625;-73
2021/12/26 10:19:17;;;;;;;4.90;2.10;;;-3.00;92.50;;;;;;5072266;28;20048;-73
2021/12/26 10:21:47;;;;;;;4.70;2.08;;;-3.00;92.10;;;;;;5089106;28;20158;-73
2021/12/26 10:24:25;;;;;;;5.47;2.35;;;-2.90;91.60;;;;;;5072106;28;20497;-73
2021/12/26 10:27:29;;;;;;;4.68;1.98;;;-2.90;91.40;;;;;;5089572;28;20060;-73
2021/12/26 10:30:00;;;;;;;3.67;1.58;;;-2.90;90.80;;;;;;5049977;28;20056;-73
2021/12/26 10:32:34;;;;;;;3.55;2.20;;;-2.80;91.30;;;;;;5071757;28;20420;-74
2021/12/26 10:35:04;;;;;;;5.13;2.42;;;-2.80;91.10;;;;;;5051964;28;20040;-74
2021/12/26 10:37:42;;;;;;;4.40;1.95;;;-2.70;90.90;;;;;;5071055;28;20082;-73
2021/12/26 10:40:10;;;;;;;5.93;2.45;;;-2.60;90.10;;;;;;5069132;28;20036;-74
2021/12/26 10:42:39;;;;;;;4.60;2.53;;;-2.60;90.70;;;;;;5070250;28;20036;-74
2021/12/26 10:45:11;;;;;;;4.95;2.15;;;-2.50;89.30;;;;;;5054308;28;20048;-74
2021/12/26 10:47:39;;;;;;;4.53;2.05;;;-2.50;89.00;;;;;;5069900;28;20436;-74
2021/12/26 10:50:09;;;;;;;6.05;2.65;;;-2.30;88.40;;;;;;5071657;28;20414;-74
2021/12/26 10:52:38;;;;;;;4.60;2.40;;;-1.70;90.60;;;;;;5089413;28;20048;-74
2021/12/26 10:55:12;;;;;;;6.47;2.83;;;-1.20;86.90;;;;;;5089357;28;20036;-74
2021/12/26 10:57:42;;;;;;;5.72;2.55;;;-1.10;82.50;;;;;;5089117;28;20047;-74
2021/12/26 11:00:20;;;;;;;7.13;2.53;;;-1.00;84.60;;;;;;5088940;28;20051;-72
2021/12/26 11:03:03;;;;;;;5.22;2.35;;;-0.90;83.70;;;;;;5089496;28;20404;-73
2021/12/26 11:05:38;;;;;;;4.50;2.28;;;-0.80;76.20;;;;;;5089442;28;20044;-75
2021/12/26 11:08:06;;;;;;;5.60;2.05;;;-0.60;78.20;;;;;;5088673;28;20074;-74
2021/12/26 11:10:36;;;;;;;5.93;2.85;;;-0.30;77.90;;;;;;5068691;28;20909;-74
2021/12/26 11:13:04;;;;;;;4.30;2.45;;;-0.20;76.50;;;;;;5070772;28;20145;-73
2021/12/26 11:15:33;;;;;;;4.00;2.03;;;0.00;75.00;;;;;;5089805;28;20070;-74
2021/12/26 11:18:02;;;;;;;4.65;2.38;;;0.40;71.80;;;;;;5089487;28;20074;-75
2021/12/26 11:20:30;;;;;;;5.35;2.38;;;0.70;72.30;;;;;;5089312;28;20044;-75
2021/12/26 11:22:57;;;;;;;4.72;2.85;;;1.10;70.20;;;;;;5089128;28;20043;-75
2021/12/26 11:25:24;;;;;;;4.35;2.58;;;1.30;68.50;;;;;;5071499;28;20102;-75
2021/12/26 11:27:50;;;;;;;4.15;2.40;;;1.20;65.70;;;;;;5071336;28;20044;-75
2021/12/26 11:30:16;;;;;;;3.90;2.10;;;1.00;65.30;;;;;;5089542;28;20542;-75
2021/12/26 11:32:43;;;;;;;3.83;2.17;;;0.90;67.10;;;;;;5069814;28;20048;-75
2021/12/26 11:35:09;;;;;;;4.55;2.05;;;1.00;66.50;;;;;;5034679;28;20079;-75
2021/12/26 11:37:37;;;;;;;4.25;2.10;;;0.80;64.90;;;;;;5050853;28;20048;-75
2021/12/26 11:40:06;;;;;;;5.75;2.30;;;0.50;67.10;;;;;;5069204;28;20040;-75
2021/12/26 11:42:56;;;;;;;4.82;2.30;;;0.20;67.70;;;;;;5068997;28;20049;-75
2021/12/26 11:46:21;;;;;;;4.43;2.30;;;-0.10;66.80;;;;;;5051102;28;20080;-75
2021/12/26 11:49:26;;;;;;;5.38;2.05;;;-0.40;67.50;;;;;;4990457;28;20578;-75
2021/12/26 11:52:14;;;;;;;3.95;2.05;;;-0.60;70.00;;;;;;5051142;28;20052;-76
2021/12/26 11:55:04;;;;;;;5.50;2.30;;;-0.80;72.30;;;;;;5050700;28;20094;-75
2021/12/26 11:57:46;;;;;;;5.60;2.20;;;-0.90;74.40;;;;;;5070795;28;20502;-75
2021/12/26 12:00:25;;;;;;;6.40;2.58;;;-0.90;74.20;;;;;;5054464;28;20102;-75
2021/12/26 12:02:56;;;;;;;6.75;2.17;;;-0.90;76.00;;;;;;5054956;28;20056;-75
2021/12/26 12:05:28;;;;;;;6.63;2.72;;;-0.90;74.60;;;;;;5038234;28;20044;-75
2021/12/26 12:08:01;;;;;;;7.00;3.75;;;-0.80;77.60;;;;;;5054192;28;20060;-75
2021/12/26 12:10:42;;;;;;;9.38;4.00;;;-0.80;77.50;;;;;;5054436;28;20463;-75
2021/12/26 12:13:14;;;;;;;6.38;2.90;;;-0.70;78.60;;;;;;5072375;28;20045;-75
2021/12/26 12:15:45;;;;;;;6.90;3.25;;;-0.50;77.70;;;;;;5054755;28;20086;-75
2021/12/26 12:18:14;;;;;;;6.43;3.42;;;0.00;79.20;;;;;;5054128;28;20079;-75
2021/12/26 12:20:41;;;;;;;6.45;3.33;;;0.20;76.50;;;;;;5054950;28;20450;-75
2021/12/26 12:23:09;;;;;;;4.60;2.60;;;0.20;76.60;;;;;;5054361;28;20056;-75
2021/12/26 12:25:38;;;;;;;5.45;3.05;;;0.20;75.60;;;;;;5054560;28;20513;-75
2021/12/26 12:28:10;;;;;;;5.90;2.75;;;0.20;75.30;;;;;;5054053;28;20048;-75
2021/12/26 12:30:37;;;;;;;5.25;2.78;;;0.60;75.40;;;;;;5054398;28;20041;-75
2021/12/26 12:33:36;;;;;;;5.80;2.70;;;0.80;74.70;;;;;;5058190;28;20503;-75
2021/12/26 12:36:08;;;;;;;4.20;1.95;;;0.70;74.90;;;;;;5041437;28;20060;-75
2021/12/26 12:38:38;;;;;;;4.00;2.13;;;0.50;71.10;;;;;;5073985;28;20123;-75
2021/12/26 12:41:07;;;;;;;4.20;2.00;;;0.60;73.90;;;;;;5056955;28;20097;-75
2021/12/26 12:43:47;;;;;;;4.85;2.15;;;0.40;73.60;;;;;;5073938;28;20082;-75
2021/12/26 12:46:13;;;;;;;4.18;1.65;;;0.30;72.60;;;;;;5092354;28;20048;-75
2021/12/26 12:48:44;;;;;;;6.25;2.33;;;0.10;74.20;;;;;;5057278;28;20078;-75
2021/12/26 12:51:16;;;;;;;3.40;2.17;;;0.10;74.90;;;;;;5091779;28;20136;-75
2021/12/26 12:53:58;;;;;;;4.53;2.40;;;0.30;73.70;;;;;;5092016;28;20048;-75